Time;durP1;ratioP1;P1;durP2;ratioP2;P2;SDS_P1;SDS_P2;PMS_P1;PMS_P2;Temp;Humidity;BMP_temperature;BMP_pressure;BME280_temperature;BME280_humidity;BME280_pressure;Samples;Min_cycle;Max_cycle;Signal;HPM_P1;HPM_P2
2021/12/10 00:00:50;;;;;;;15.57;6.70;;;;;;;1.50;100.00;99604.56;2065618;28;20014;-64
2021/12/10 00:02:02;;;;;;;11.43;7.93;;;;;;;1.51;100.00;99604.53;2074399;28;20402;-64
2021/12/10 00:03:06;;;;;;;12.13;6.85;;;;;;;1.55;100.00;99597.59;2074375;28;20384;-64
2021/12/10 00:04:08;;;;;;;11.70;7.35;;;;;;;1.60;100.00;99594.88;2074311;28;20030;-64
2021/12/10 00:05:09;;;;;;;15.57;8.25;;;;;;;1.65;100.00;99603.34;2065634;28;20081;-64
2021/12/10 00:06:17;;;;;;;13.20;7.43;;;;;;;1.69;100.00;99599.81;2065645;28;20067;-66
2021/12/10 00:07:21;;;;;;;15.00;6.45;;;;;;;1.74;100.00;99592.81;2074302;28;20288;-64
2021/12/10 00:08:23;;;;;;;13.63;6.88;;;;;;;1.78;100.00;99583.31;2074328;28;20387;-64
2021/12/10 00:09:30;;;;;;;12.45;7.05;;;;;;;1.78;100.00;99579.00;2074276;28;20033;-63
2021/12/10 00:10:34;;;;;;;10.35;6.00;;;;;;;1.79;100.00;99580.66;2074289;28;20076;-64
2021/12/10 00:11:41;;;;;;;9.23;6.22;;;;;;;1.79;100.00;99572.94;2074248;28;20037;-64
2021/12/10 00:12:49;;;;;;;8.48;6.38;;;;;;;1.79;100.00;99575.53;2074254;28;20018;-65
2021/12/10 00:13:50;;;;;;;9.52;6.30;;;;;;;1.80;100.00;99572.09;2074249;28;20378;-63
2021/12/10 00:14:51;;;;;;;12.15;6.93;;;;;;;1.84;100.00;99565.13;2074310;28;20022;-64
2021/12/10 00:15:54;;;;;;;13.15;6.22;;;;;;;1.88;100.00;99558.19;2074273;28;20483;-62
2021/12/10 00:16:55;;;;;;;9.77;5.97;;;;;;;1.89;99.84;99554.72;2074221;28;20022;-64
2021/12/10 00:17:58;;;;;;;14.93;6.90;;;;;;;1.89;100.00;99544.41;2065443;28;20450;-64
2021/12/10 00:19:14;;;;;;;13.05;6.30;;;;;;;1.87;99.50;99539.31;2065530;28;20030;-65
2021/12/10 00:20:16;;;;;;;10.25;5.95;;;;;;;1.88;99.47;99553.03;2065408;28;20081;-65
2021/12/10 00:21:16;;;;;;;13.20;6.75;;;;;;;1.89;99.45;99547.00;2065596;28;20507;-65
2021/12/10 00:22:19;;;;;;;10.03;5.53;;;;;;;1.89;99.25;99547.81;2074293;28;20065;-64
2021/12/10 00:23:20;;;;;;;12.63;6.05;;;;;;;1.92;98.97;99539.19;2074240;28;20472;-63
2021/12/10 00:24:24;;;;;;;9.15;5.47;;;;;;;1.93;99.08;99546.03;2074147;28;20053;-64
2021/12/10 00:25:34;;;;;;;8.55;5.97;;;;;;;1.95;99.17;99540.84;2074197;28;20049;-65
2021/12/10 00:26:35;;;;;;;10.82;5.78;;;;;;;1.97;98.58;99532.19;2065385;28;20026;-66
2021/12/10 00:27:36;;;;;;;9.73;5.32;;;;;;;1.98;98.65;99533.88;2065495;28;20029;-66
2021/12/10 00:28:39;;;;;;;8.93;5.50;;;;;;;1.98;98.88;99533.88;2074138;28;20108;-65
2021/12/10 00:29:47;;;;;;;10.43;6.45;;;;;;;1.97;98.81;99526.19;2074116;28;20481;-65
2021/12/10 00:31:14;;;;;;;8.95;4.60;;;;;;;1.97;98.39;99526.19;2074085;28;20100;-65
2021/12/10 00:32:24;;;;;;;9.02;4.75;;;;;;;1.99;98.23;99514.94;2065347;28;20041;-64
2021/12/10 00:33:25;;;;;;;7.25;5.38;;;;;;;2.00;98.18;99510.66;2066693;28;20515;-64
2021/12/10 00:34:29;;;;;;;11.25;5.65;;;;;;;1.98;98.40;99507.31;2074052;28;20108;-65
2021/12/10 00:35:32;;;;;;;8.82;4.53;;;;;;;1.93;98.25;99503.13;2074135;28;20061;-66
2021/12/10 00:36:33;;;;;;;10.88;5.05;;;;;;;1.90;98.30;99504.94;2074043;28;20029;-65
2021/12/10 00:37:34;;;;;;;8.15;4.63;;;;;;;1.88;98.63;99501.56;2074052;28;20030;-65
2021/12/10 00:38:35;;;;;;;7.47;4.55;;;;;;;1.90;98.72;99515.22;2074050;28;20080;-65
2021/12/10 00:39:40;;;;;;;9.13;4.97;;;;;;;1.92;98.36;99508.31;2074081;28;20029;-65
2021/12/10 00:40:42;;;;;;;9.07;4.32;;;;;;;1.93;97.96;99510.00;2074004;28;20040;-66
2021/12/10 00:41:42;;;;;;;12.95;4.80;;;;;;;1.90;98.36;99498.06;2065305;28;20022;-65
2021/12/10 00:42:43;;;;;;;7.15;4.85;;;;;;;1.88;98.14;99491.28;2065255;28;20034;-65
2021/12/10 00:43:44;;;;;;;9.63;4.07;;;;;;;1.87;98.29;99479.28;2057239;28;20070;-64
2021/12/10 00:44:45;;;;;;;15.27;5.45;;;;;;;1.89;98.05;99480.09;2065075;28;20093;-66
2021/12/10 00:45:46;;;;;;;7.60;4.47;;;;;;;1.87;98.02;99481.84;2065984;28;20070;-65
2021/12/10 00:46:46;;;;;;;10.05;4.35;;;;;;;1.85;97.83;99470.78;2065878;28;20041;-66
2021/12/10 00:47:48;;;;;;;7.65;4.35;;;;;;;1.91;97.29;99478.31;2065340;28;20488;-65
2021/12/10 00:48:48;;;;;;;;;;;;;;;1.88;97.50;99473.28;2065612;28;20030;-64
2021/12/10 00:49:49;;;;;;;7.22;3.83;;;;;;;1.84;97.58;99480.22;2065836;28;19909;-65
2021/12/10 00:50:53;;;;;;;6.03;3.28;;;;;;;1.86;97.58;99472.47;2065231;28;20042;-66
2021/12/10 00:51:53;;;;;;;9.65;3.85;;;;;;;1.87;97.22;99471.56;2065261;28;20073;-64
2021/12/10 00:52:54;;;;;;;6.53;4.00;;;;;;;1.87;97.50;99469.00;2065870;28;20030;-65
2021/12/10 00:53:55;;;;;;;9.48;4.13;;;;;;;1.83;97.52;99467.41;2065174;28;20061;-65
2021/12/10 00:54:55;;;;;;;7.78;4.38;;;;;;;1.73;97.83;99462.53;2065251;28;20527;-65
2021/12/10 00:55:55;;;;;;;8.90;3.60;;;;;;;1.70;97.70;99460.03;2065836;28;20054;-64
2021/12/10 00:56:56;;;;;;;11.37;4.07;;;;;;;1.71;97.67;99453.16;2065209;28;20022;-65
2021/12/10 00:57:57;;;;;;;8.63;4.17;;;;;;;1.66;97.83;99458.44;2065148;28;20030;-65
2021/12/10 00:58:58;;;;;;;;;;;;;;;1.65;98.46;99454.19;2066210;28;20014;-65
2021/12/10 00:59:58;;;;;;;9.45;4.63;;;;;;;1.60;98.24;99458.59;2068437;28;19916;-64
2021/12/10 01:01:10;;;;;;;6.83;3.77;;;;;;;1.61;98.73;99455.16;2065510;28;20033;-65
2021/12/10 01:02:13;;;;;;;8.10;4.05;;;;;;;1.70;98.53;99449.75;2065722;28;20026;-64
2021/12/10 01:03:32;;;;;;;6.82;4.03;;;;;;;1.70;97.80;99444.59;2065620;28;20038;-65
2021/12/10 01:04:36;;;;;;;9.18;4.25;;;;;;;1.64;97.98;99437.06;2065019;28;20027;-65
2021/12/10 01:05:39;;;;;;;11.63;4.57;;;;;;;1.69;98.09;99435.19;2065158;28;20416;-65
2021/12/10 01:06:42;;;;;;;8.85;5.30;;;;;;;1.72;97.92;99435.13;2065554;28;20042;-65
2021/12/10 01:07:44;;;;;;;7.43;4.40;;;;;;;1.72;97.85;99429.13;2065068;28;20022;-65
2021/12/10 01:08:47;;;;;;;6.63;3.85;;;;;;;1.67;97.76;99429.25;2065135;28;20018;-65
2021/12/10 01:09:51;;;;;;;5.28;4.05;;;;;;;1.62;97.87;99425.97;2065662;28;20036;-65
2021/12/10 01:10:58;;;;;;;5.78;4.32;;;;;;;1.54;97.91;99418.47;2065714;28;20093;-66
2021/12/10 01:12:16;;;;;;;7.65;3.75;;;;;;;1.46;98.25;99418.69;2065679;28;20018;-66
2021/12/10 01:13:26;;;;;;;6.20;3.88;;;;;;;1.45;98.59;99414.44;2065610;28;20026;-65
2021/12/10 01:14:41;;;;;;;9.18;3.95;;;;;;;1.48;98.60;99411.78;2065700;28;20465;-65
2021/12/10 01:23:47;;;;;;;6.97;3.95;;;;;;;1.39;99.32;99383.72;2065684;28;20030;-65
2021/12/10 01:23:59;;;;;;;6.90;3.63;;;;;;;1.52;98.95;99377.38;2065736;28;20030;-66
2021/12/10 01:26:24;;;;;;;7.18;3.83;;;;;;;1.50;98.83;99368.84;2065661;28;20042;-66
2021/12/10 01:27:31;;;;;;;8.13;3.17;;;;;;;1.44;98.84;99371.63;2065018;28;20026;-65
2021/12/10 01:28:31;;;;;;;8.68;3.75;;;;;;;1.44;98.82;99360.47;2065103;28;20101;-65
2021/12/10 01:29:36;;;;;;;6.35;4.00;;;;;;;1.46;98.92;99371.53;2065529;28;20026;-65
2021/12/10 01:30:40;;;;;;;7.68;3.85;;;;;;;1.44;98.85;99369.03;2065490;28;20038;-65
2021/12/10 01:31:42;;;;;;;6.82;3.85;;;;;;;1.43;99.07;99367.34;2065636;28;20026;-65
2021/12/10 01:32:56;;;;;;;9.07;4.40;;;;;;;1.48;99.18;99360.34;2065659;28;20425;-64
2021/12/10 01:33:57;;;;;;;8.43;3.92;;;;;;;1.52;98.64;99351.66;2064854;28;20117;-66
2021/12/10 01:34:58;;;;;;;6.50;3.58;;;;;;;1.50;98.48;99343.13;2065071;28;20022;-65
2021/12/10 01:36:00;;;;;;;7.88;3.50;;;;;;;1.47;98.41;99347.53;2065567;28;20113;-66
2021/12/10 01:37:02;;;;;;;11.10;4.65;;;;;;;1.48;98.43;99344.94;2065564;28;20049;-64
2021/12/10 01:38:05;;;;;;;6.60;3.35;;;;;;;1.52;98.33;99346.53;2065649;28;20030;-65
2021/12/10 01:39:09;;;;;;;8.15;4.18;;;;;;;1.47;98.35;99342.41;2065559;28;20045;-66
2021/12/10 01:40:11;;;;;;;6.47;3.38;;;;;;;1.41;98.31;99341.66;2065505;28;20041;-66
2021/12/10 01:41:16;;;;;;;13.30;4.72;;;;;;;1.41;98.60;99344.25;2065520;28;20061;-66
2021/12/10 01:42:32;;;;;;;9.82;4.07;;;;;;;1.45;98.65;99337.28;2065642;28;20077;-66
2021/12/10 01:43:35;;;;;;;7.22;3.78;;;;;;;1.47;98.72;99329.53;2065572;28;20057;-64
2021/12/10 01:44:36;;;;;;;5.95;3.17;;;;;;;1.46;98.41;99327.84;2065555;28;20022;-64
2021/12/10 01:45:46;;;;;;;;;;;;;;;1.44;99.05;99327.91;2073830;28;20046;-65
2021/12/10 01:46:48;;;;;;;7.38;3.40;;;;;;;1.49;98.67;99335.47;2073656;28;20352;-65
2021/12/10 01:47:58;;;;;;;6.38;3.30;;;;;;;1.51;98.25;99329.38;2064893;28;20117;-64
2021/12/10 01:49:05;;;;;;;6.13;3.45;;;;;;;1.51;98.12;99321.66;2064765;28;20018;-64
2021/12/10 01:50:06;;;;;;;9.52;3.88;;;;;;;1.52;97.97;99325.94;2065775;28;20037;-66
2021/12/10 01:51:10;;;;;;;9.65;3.28;;;;;;;1.47;98.18;99327.78;2073609;28;20553;-65
2021/12/10 01:52:15;;;;;;;5.75;2.95;;;;;;;1.41;97.97;99328.00;2073628;28;20396;-66
2021/12/10 01:53:19;;;;;;;7.90;3.45;;;;;;;1.34;98.57;99323.91;2064773;28;20427;-66
2021/12/10 01:54:31;;;;;;;8.48;3.90;;;;;;;1.33;99.23;99310.19;2065435;28;20034;-65
2021/12/10 01:55:36;;;;;;;8.57;3.67;;;;;;;1.37;98.74;99316.94;2064755;28;20027;-66
2021/12/10 01:56:38;;;;;;;6.90;3.60;;;;;;;1.37;98.49;99316.94;2065277;28;20032;-66
2021/12/10 01:57:39;;;;;;;6.93;2.92;;;;;;;1.36;98.64;99322.13;2073595;28;20025;-66
2021/12/10 01:58:39;;;;;;;8.73;3.63;;;;;;;1.39;99.02;99309.19;2073543;28;20113;-66
2021/12/10 01:59:41;;;;;;;9.45;3.78;;;;;;;1.46;98.54;99310.69;2073573;28;20025;-66
2021/12/10 02:00:47;;;;;;;8.02;3.92;;;;;;;1.46;98.39;99310.69;2073557;28;20014;-66
2021/12/10 02:01:55;;;;;;;6.35;3.50;;;;;;;1.44;98.13;99315.06;2073435;28;20018;-66
2021/12/10 02:02:56;;;;;;;9.43;3.85;;;;;;;1.37;98.45;99311.78;2073502;28;20022;-66
2021/12/10 02:03:59;;;;;;;7.53;3.58;;;;;;;1.36;98.80;99301.56;2073465;28;20037;-65
2021/12/10 02:05:00;;;;;;;7.40;3.50;;;;;;;1.35;98.83;99302.44;2073522;28;20026;-65
2021/12/10 02:06:01;;;;;;;5.77;3.37;;;;;;;1.43;98.85;99309.94;2064710;28;20030;-65
2021/12/10 02:07:04;;;;;;;6.57;3.33;;;;;;;1.45;98.26;99305.59;2064868;28;20398;-66
2021/12/10 02:08:04;;;;;;;5.65;2.97;;;;;;;1.47;98.35;99301.25;2073444;28;20025;-65
2021/12/10 02:09:07;;;;;;;9.65;3.35;;;;;;;1.44;97.89;99294.47;2064665;28;20038;-66
2021/12/10 02:10:10;;;;;;;10.38;3.45;;;;;;;1.41;98.29;99297.13;2065022;28;20081;-66
2021/12/10 02:11:10;;;;;;;10.30;4.50;;;;;;;1.43;98.47;99295.34;2073546;28;20028;-66
2021/12/10 02:12:11;;;;;;;6.53;3.22;;;;;;;1.46;97.96;99300.41;2073569;28;20367;-66
2021/12/10 02:13:12;;;;;;;5.70;3.50;;;;;;;1.50;98.25;99288.28;2065569;28;20076;-66
2021/12/10 02:14:13;;;;;;;6.97;3.90;;;;;;;1.54;97.59;99287.34;2066403;28;20125;-64
2021/12/10 02:15:14;;;;;;;5.07;2.78;;;;;;;1.54;97.91;99285.59;2075216;28;20280;-65
2021/12/10 02:16:15;;;;;;;6.65;3.22;;;;;;;1.52;98.00;99287.38;2075123;28;20572;-65
2021/12/10 02:17:15;;;;;;;6.18;3.53;;;;;;;1.52;97.82;99274.53;2075212;28;20097;-64
2021/12/10 02:18:16;;;;;;;9.20;3.03;;;;;;;1.53;97.68;99276.19;2075120;28;20117;-64
2021/12/10 02:19:17;;;;;;;7.20;3.00;;;;;;;1.62;97.11;99272.50;2066343;28;20026;-65
2021/12/10 02:20:24;;;;;;;6.25;2.92;;;;;;;1.62;96.58;99279.38;2066379;28;20093;-66
2021/12/10 02:21:26;;;;;;;6.65;2.97;;;;;;;1.61;96.57;99272.56;2075088;28;20032;-66
2021/12/10 02:22:26;;;;;;;8.07;3.15;;;;;;;1.60;96.36;99270.84;2075118;28;20087;-65
2021/12/10 02:23:28;;;;;;;5.47;2.80;;;;;;;1.64;96.67;99252.72;2075210;28;20030;-66
2021/12/10 02:24:29;;;;;;;9.98;2.70;;;;;;;1.68;96.31;99261.19;2075115;28;20384;-64
2021/12/10 02:25:31;;;;;;;6.50;2.47;;;;;;;1.69;96.18;99262.88;2066199;28;20121;-65
2021/12/10 02:26:35;;;;;;;7.20;3.42;;;;;;;1.63;95.96;99263.06;2066527;28;20056;-66
2021/12/10 02:27:36;;;;;;;5.30;3.00;;;;;;;1.60;96.10;99261.41;2075198;28;20029;-65
2021/12/10 02:28:36;;;;;;;7.32;2.33;;;;;;;1.54;96.77;99257.31;2075094;28;20034;-65
2021/12/10 02:29:38;;;;;;;6.72;3.13;;;;;;;1.50;97.22;99249.72;2074978;28;20360;-66
2021/12/10 02:30:39;;;;;;;;;;;;;;;1.49;96.90;99248.91;2075504;28;20054;-63
2021/12/10 02:31:40;;;;;;;8.15;2.75;;;;;;;1.58;96.49;99249.50;2075002;28;19917;-65
2021/12/10 02:32:41;;;;;;;6.18;2.70;;;;;;;1.59;96.29;99248.59;2075069;28;20030;-65
2021/12/10 02:33:41;;;;;;;4.53;2.22;;;;;;;1.56;96.61;99240.97;2075038;28;20038;-66
2021/12/10 02:34:44;;;;;;;4.20;2.50;;;;;;;1.55;96.50;99242.72;2075080;28;20156;-65
2021/12/10 02:35:44;;;;;;;4.10;1.98;;;;;;;1.57;96.75;99234.97;2075059;28;20021;-65
2021/12/10 02:36:44;;;;;;;5.77;2.50;;;;;;;1.58;96.62;99239.22;2075021;28;20113;-64
2021/12/10 02:37:47;;;;;;;4.47;2.50;;;;;;;1.62;96.34;99233.09;2075009;28;20037;-64
2021/12/10 02:38:50;;;;;;;4.88;2.13;;;;;;;1.63;96.16;99220.19;2074923;28;20029;-64
2021/12/10 02:39:50;;;;;;;7.57;2.22;;;;;;;1.65;96.17;99226.09;2074940;28;20010;-65
2021/12/10 02:40:53;;;;;;;3.13;2.03;;;;;;;1.66;95.54;99214.94;2074979;28;20099;-65
2021/12/10 02:41:54;;;;;;;5.78;1.90;;;;;;;1.70;95.44;99219.97;2074902;28;20475;-65
2021/12/10 02:42:56;;;;;;;5.40;2.00;;;;;;;1.69;95.86;99224.28;2074969;28;20068;-65
2021/12/10 02:44:00;;;;;;;4.50;2.35;;;;;;;1.70;95.36;99205.38;2075016;28;20018;-63
2021/12/10 02:45:00;;;;;;;3.20;1.80;;;;;;;1.71;95.34;99214.78;2066032;28;20089;-66
2021/12/10 02:46:01;;;;;;;7.13;3.28;;;;;;;1.72;95.30;99216.47;2066209;28;20417;-65
2021/12/10 02:47:02;;;;;;;4.20;2.25;;;;;;;1.73;95.09;99214.72;2074952;28;20487;-65
2021/12/10 02:48:04;;;;;;;6.57;1.95;;;;;;;1.74;95.27;99206.97;2074991;28;20030;-65
2021/12/10 02:49:06;;;;;;;4.30;2.08;;;;;;;1.76;95.03;99210.34;2066183;28;20117;-65
2021/12/10 02:50:09;;;;;;;3.88;1.70;;;;;;;1.76;95.00;99207.78;2066386;28;20069;-65
2021/12/10 02:51:10;;;;;;;4.82;1.95;;;;;;;1.74;95.12;99206.97;2074804;28;20033;-65
2021/12/10 02:52:11;;;;;;;4.65;2.05;;;;;;;1.73;95.16;99200.16;2074934;28;20057;-66
2021/12/10 02:53:15;;;;;;;5.22;2.15;;;;;;;1.75;94.76;99203.50;2074884;28;20375;-64
2021/12/10 02:54:21;;;;;;;4.22;2.25;;;;;;;1.77;94.63;99201.72;2074738;28;20026;-65
2021/12/10 02:55:22;;;;;;;4.72;2.13;;;;;;;1.79;94.79;99202.50;2074832;28;20021;-66
2021/12/10 02:56:23;;;;;;;4.18;2.20;;;;;;;1.82;94.70;99198.16;2074834;28;20463;-66
2021/12/10 02:57:23;;;;;;;;;;;;;;;1.84;94.44;99197.22;2066373;28;20482;-65
2021/12/10 02:58:25;;;;;;;3.63;1.55;;;;;;;1.79;94.55;99194.78;2066119;28;19910;-64
2021/12/10 02:59:25;;;;;;;7.97;2.25;;;;;;;1.83;94.50;99189.56;2074815;28;20022;-65
2021/12/10 03:00:32;;;;;;;3.77;1.77;;;;;;;1.79;94.79;99187.06;2074935;28;20034;-65
2021/12/10 03:01:40;;;;;;;5.90;1.88;;;;;;;1.78;94.49;99187.97;2074817;28;20176;-65
2021/12/10 03:02:41;;;;;;;9.10;2.30;;;;;;;1.76;94.49;99188.91;2074802;28;20053;-64
2021/12/10 03:03:41;;;;;;;6.20;2.30;;;;;;;1.73;95.23;99189.88;2074831;28;20032;-63
2021/12/10 03:04:43;;;;;;;4.37;1.87;;;;;;;1.74;94.90;99190.72;2074826;28;20475;-66
2021/12/10 03:05:44;;;;;;;6.65;1.70;;;;;;;1.74;95.08;99185.56;2074766;28;20026;-64
2021/12/10 03:06:53;;;;;;;3.17;2.13;;;;;;;1.74;94.75;99176.09;2074758;28;20438;-66
2021/12/10 03:07:54;;;;;;;4.93;2.08;;;;;;;1.71;94.84;99181.34;2074577;28;20125;-65
2021/12/10 03:08:55;;;;;;;3.85;2.03;;;;;;;1.71;94.97;99171.06;2074642;28;20144;-66
2021/12/10 03:09:56;;;;;;;4.57;2.30;;;;;;;1.74;94.95;99173.53;2074697;28;20021;-64
2021/12/10 03:10:57;;;;;;;5.72;2.45;;;;;;;1.79;94.41;99169.06;2074750;28;20037;-64
2021/12/10 03:11:58;;;;;;;6.23;2.43;;;;;;;1.80;94.19;99168.19;2066002;28;20041;-63
2021/12/10 03:13:00;;;;;;;3.17;1.50;;;;;;;1.83;94.05;99168.97;2066155;28;20030;-64
2021/12/10 03:14:06;;;;;;;4.78;2.30;;;;;;;1.80;94.54;99168.19;2074658;28;20463;-66
2021/12/10 03:15:08;;;;;;;4.18;2.00;;;;;;;1.80;94.42;99152.75;2065802;28;20022;-65
2021/12/10 03:16:08;;;;;;;4.60;1.92;;;;;;;1.84;93.92;99165.53;2057974;28;20550;-66
2021/12/10 03:17:14;;;;;;;7.03;2.10;;;;;;;1.82;94.03;99162.16;2057932;28;20030;-66
2021/12/10 03:18:17;;;;;;;5.60;1.60;;;;;;;1.76;94.09;99158.91;2066691;28;20026;-65
2021/12/10 03:19:17;;;;;;;6.95;2.60;;;;;;;1.78;93.97;99157.09;2065893;28;20049;-66
2021/12/10 03:20:21;;;;;;;4.22;1.98;;;;;;;1.80;94.33;99157.06;2065962;28;20484;-65
2021/12/10 03:21:21;;;;;;;5.50;1.58;;;;;;;1.80;94.03;99152.75;2065841;28;20034;-66
2021/12/10 03:22:23;;;;;;;7.05;2.20;;;;;;;1.79;94.14;99156.22;2065954;28;20089;-66
2021/12/10 03:23:24;;;;;;;5.63;2.08;;;;;;;1.75;94.06;99154.63;2074701;28;20021;-66
2021/12/10 03:24:26;;;;;;;5.07;2.07;;;;;;;1.75;94.40;99148.66;2065642;28;20133;-66
2021/12/10 03:25:26;;;;;;;6.20;2.05;;;;;;;1.75;94.45;99154.63;2066032;28;20045;-66
2021/12/10 03:26:27;;;;;;;7.17;2.13;;;;;;;1.75;94.36;99152.06;2074632;28;20029;-65
2021/12/10 03:27:27;;;;;;;4.73;1.37;;;;;;;1.76;93.63;99148.63;2065743;28;20026;-67
2021/12/10 03:28:28;;;;;;;4.63;2.03;;;;;;;1.78;93.91;99149.38;2065891;28;20335;-66
2021/12/10 03:29:29;;;;;;;7.43;2.33;;;;;;;1.75;94.04;99148.66;2074542;28;20075;-67
2021/12/10 03:30:32;;;;;;;;;;;;;;;1.72;94.58;99141.91;2074864;28;20032;-66
2021/12/10 03:31:32;;;;;;;4.63;1.50;;;;;;;1.70;94.67;99148.81;2074618;28;19936;-65
2021/12/10 03:32:33;;;;;;;3.45;1.42;;;;;;;1.69;94.23;99147.13;2074673;28;20096;-66
2021/12/10 03:33:36;;;;;;;3.13;1.15;;;;;;;1.68;94.64;99145.47;2074623;28;20028;-66
2021/12/10 03:34:37;;;;;;;3.75;1.55;;;;;;;1.71;94.55;99139.38;2074646;28;20056;-65
2021/12/10 03:35:42;;;;;;;4.05;2.33;;;;;;;1.71;94.53;99140.19;2074519;28;20423;-66
2021/12/10 03:36:45;;;;;;;5.10;1.65;;;;;;;1.72;94.22;99138.47;2065799;28;20105;-66
2021/12/10 03:37:46;;;;;;;4.45;1.90;;;;;;;1.73;94.58;99137.56;2066273;28;20367;-66
2021/12/10 03:38:47;;;;;;;4.38;2.15;;;;;;;1.72;94.37;99141.91;2074602;28;20025;-66
2021/12/10 03:39:50;;;;;;;6.18;1.80;;;;;;;1.67;94.91;99124.03;2074442;28;20033;-66
2021/12/10 03:40:52;;;;;;;4.80;2.47;;;;;;;1.70;94.39;99130.81;2074546;28;20037;-66
2021/12/10 03:41:54;;;;;;;7.38;1.58;;;;;;;1.71;94.42;99129.91;2074541;28;20034;-66
2021/12/10 03:42:58;;;;;;;3.25;1.52;;;;;;;1.72;94.25;99129.03;2074595;28;20018;-66
2021/12/10 03:43:58;;;;;;;7.22;1.90;;;;;;;1.70;94.78;99127.38;2074446;28;20104;-65
2021/12/10 03:44:59;;;;;;;4.87;1.97;;;;;;;1.69;94.53;99125.72;2074382;28;20368;-65
2021/12/10 03:46:00;;;;;;;5.90;1.50;;;;;;;1.71;94.67;99122.19;2074473;28;20026;-66
2021/12/10 03:47:03;;;;;;;4.78;2.08;;;;;;;1.71;94.63;99118.78;2074503;28;20034;-65
2021/12/10 03:48:11;;;;;;;6.07;2.75;;;;;;;1.71;94.17;99113.66;2074473;28;20026;-65
2021/12/10 03:49:13;;;;;;;3.75;1.67;;;;;;;1.70;94.68;99117.94;2074438;28;20037;-65
2021/12/10 03:50:25;;;;;;;3.35;1.38;;;;;;;1.71;94.42;99118.78;2065652;28;20030;-65
2021/12/10 03:51:26;;;;;;;4.32;1.88;;;;;;;1.69;94.45;99111.13;2067062;28;20454;-65
2021/12/10 03:52:26;;;;;;;5.23;1.93;;;;;;;1.69;94.76;99110.28;2074492;28;20022;-65
2021/12/10 03:53:27;;;;;;;8.70;2.17;;;;;;;1.69;94.28;99107.69;2074410;28;20022;-64
2021/12/10 03:54:29;;;;;;;6.72;2.08;;;;;;;1.69;94.63;99108.56;2074436;28;20036;-67
2021/12/10 03:55:30;;;;;;;5.05;1.80;;;;;;;1.69;94.34;99105.97;2074397;28;20030;-65
2021/12/10 03:56:33;;;;;;;6.50;1.95;;;;;;;1.70;94.67;99117.94;2065658;28;20088;-66
2021/12/10 03:57:34;;;;;;;5.80;2.33;;;;;;;1.69;94.29;99100.84;2066131;28;20075;-64
2021/12/10 03:58:35;;;;;;;8.00;2.13;;;;;;;1.71;94.55;99106.75;2074414;28;20541;-65
2021/12/10 03:59:37;;;;;;;3.70;1.92;;;;;;;1.70;94.89;99102.50;2074376;28;20080;-66
2021/12/10 04:00:42;;;;;;;5.82;1.90;;;;;;;1.69;94.73;99100.84;2065570;28;20030;-66
2021/12/10 04:01:45;;;;;;;4.10;1.95;;;;;;;1.69;95.31;99097.41;2066229;28;20061;-65
2021/12/10 04:02:46;;;;;;;5.32;1.83;;;;;;;1.67;95.52;99102.59;2065574;28;20022;-65
2021/12/10 04:03:47;;;;;;;;;;;;;;;1.69;95.45;99102.56;2066090;28;20539;-66
2021/12/10 04:04:50;;;;;;;6.40;1.90;;;;;;;1.68;94.95;99099.16;2065569;28;20382;-64
2021/12/10 04:05:52;;;;;;;4.18;1.95;;;;;;;1.69;95.38;99095.69;2065852;28;20313;-66
2021/12/10 04:06:53;;;;;;;3.67;1.90;;;;;;;1.69;95.21;99089.69;2074304;28;20468;-65
2021/12/10 04:07:54;;;;;;;4.75;2.20;;;;;;;1.67;95.50;99092.31;2074363;28;20040;-66
2021/12/10 04:08:55;;;;;;;;;;;;;;;1.67;95.28;99082.88;2074772;28;20394;-66
2021/12/10 04:09:56;;;;;;;5.60;2.30;;;;;;;1.69;94.94;99084.56;2074184;28;20008;-66
2021/12/10 04:10:56;;;;;;;3.37;2.27;;;;;;;1.70;95.19;99071.66;2074278;28;20273;-66
2021/12/10 04:11:57;;;;;;;3.33;1.77;;;;;;;1.72;94.75;99075.03;2074284;28;20125;-66
2021/12/10 04:12:57;;;;;;;4.40;1.67;;;;;;;1.72;95.18;99080.16;2074244;28;20038;-66
2021/12/10 04:13:58;;;;;;;6.33;2.33;;;;;;;1.69;95.19;99075.13;2074333;28;20049;-65
2021/12/10 04:14:59;;;;;;;5.25;2.55;;;;;;;1.71;95.19;99065.59;2074306;28;20101;-65
2021/12/10 04:15:59;;;;;;;;;;;;;;;1.72;94.98;99069.88;2074684;28;20113;-66
2021/12/10 04:17:00;;;;;;;6.63;2.58;;;;;;;1.71;95.23;99070.75;2074252;28;19917;-65
2021/12/10 04:18:00;;;;;;;6.37;1.93;;;;;;;1.73;95.47;99066.41;2074252;28;20021;-65
2021/12/10 04:19:04;;;;;;;4.13;2.03;;;;;;;1.72;95.24;99063.88;2074263;28;20034;-66
2021/12/10 04:20:08;;;;;;;3.33;1.80;;;;;;;1.72;95.67;99061.31;2065405;28;20476;-65
2021/12/10 04:21:09;;;;;;;4.22;1.90;;;;;;;1.71;95.29;99063.03;2065835;28;20038;-65
2021/12/10 04:22:09;;;;;;;4.40;2.38;;;;;;;1.71;95.42;99055.31;2074152;28;20025;-66
2021/12/10 04:23:15;;;;;;;5.53;1.95;;;;;;;1.70;95.32;99053.66;2074193;28;20502;-65
2021/12/10 04:24:20;;;;;;;6.43;2.33;;;;;;;1.71;95.03;99055.31;2074190;28;20029;-66
2021/12/10 04:25:24;;;;;;;4.05;1.63;;;;;;;1.72;95.18;99051.88;2074160;28;20018;-65
2021/12/10 04:26:27;;;;;;;3.13;1.90;;;;;;;1.73;95.10;99047.56;2074231;28;20026;-66
2021/12/10 04:27:27;;;;;;;3.08;1.38;;;;;;;1.74;95.25;99044.94;2065319;28;20041;-65
2021/12/10 04:28:28;;;;;;;5.80;1.90;;;;;;;1.74;94.70;99042.34;2065383;28;20054;-65
2021/12/10 04:29:28;;;;;;;4.87;1.47;;;;;;;1.74;95.26;99037.22;2074051;28;20030;-66
2021/12/10 04:30:35;;;;;;;4.25;1.67;;;;;;;1.74;94.77;99037.22;2074122;28;20022;-65
2021/12/10 04:31:36;;;;;;;3.58;1.70;;;;;;;1.74;95.51;99042.34;2065343;28;20109;-64
2021/12/10 04:32:36;;;;;;;3.88;1.38;;;;;;;1.75;94.95;99033.75;2065497;28;20022;-65
2021/12/10 04:33:37;;;;;;;5.40;2.00;;;;;;;1.76;94.56;99025.16;2074027;28;20034;-64
2021/12/10 04:34:38;;;;;;;6.95;2.00;;;;;;;1.78;94.93;99028.50;2074054;28;20041;-65
2021/12/10 04:35:39;;;;;;;5.30;1.85;;;;;;;1.79;94.48;99019.06;2073521;28;20440;-65
2021/12/10 04:36:39;;;;;;;6.15;1.98;;;;;;;1.78;95.16;99025.91;2074087;28;20038;-66
2021/12/10 04:37:40;;;;;;;3.73;1.43;;;;;;;1.79;94.98;99019.06;2074106;28;20034;-66
2021/12/10 04:38:40;;;;;;;2.67;1.38;;;;;;;1.80;94.86;99016.44;2074043;28;20034;-65
2021/12/10 04:39:45;;;;;;;4.43;1.60;;;;;;;1.80;94.70;99010.44;2074006;28;20014;-64
2021/12/10 04:40:49;;;;;;;4.05;1.80;;;;;;;1.78;95.98;99010.50;2074081;28;20474;-65
2021/12/10 04:41:50;;;;;;;3.55;1.48;;;;;;;1.78;95.29;99007.09;2065282;28;20026;-64
2021/12/10 04:42:51;;;;;;;5.50;1.88;;;;;;;1.78;95.33;99007.91;2065377;28;20018;-64
2021/12/10 04:43:52;;;;;;;3.42;1.55;;;;;;;1.81;94.96;99004.38;2073995;28;20028;-64
2021/12/10 04:44:55;;;;;;;7.60;2.83;;;;;;;1.82;95.28;98998.38;2073838;28;20560;-64
2021/12/10 04:45:57;;;;;;;7.53;2.13;;;;;;;1.78;95.68;98992.47;2074022;28;20072;-64
2021/12/10 04:46:58;;;;;;;5.70;1.98;;;;;;;1.79;94.82;99004.44;2073982;28;20021;-65
2021/12/10 04:47:58;;;;;;;7.90;2.17;;;;;;;1.82;94.75;98993.22;2074135;28;20356;-66
2021/12/10 04:49:06;;;;;;;5.53;2.07;;;;;;;1.85;95.38;98992.28;2073921;28;20028;-65
2021/12/10 04:50:09;;;;;;;5.28;1.65;;;;;;;1.83;95.34;98987.19;2073961;28;20037;-65
2021/12/10 04:51:09;;;;;;;5.50;1.55;;;;;;;1.85;94.33;98987.13;2073998;28;20022;-65
2021/12/10 04:52:09;;;;;;;3.30;1.60;;;;;;;1.87;94.35;98982.75;2065160;28;20171;-65
2021/12/10 04:53:11;;;;;;;3.17;1.30;;;;;;;1.90;93.38;98980.91;2065257;28;20038;-65
2021/12/10 04:54:13;;;;;;;3.22;1.48;;;;;;;1.93;94.10;98974.81;2073937;28;20036;-64
2021/12/10 04:55:15;;;;;;;3.50;1.23;;;;;;;1.94;93.61;98971.34;2073964;28;20479;-64
2021/12/10 04:56:17;;;;;;;3.58;1.38;;;;;;;1.92;94.11;98973.16;2073957;28;20029;-65
2021/12/10 04:57:19;;;;;;;4.38;1.60;;;;;;;1.90;94.48;98974.94;2073919;28;20124;-64
2021/12/10 04:58:20;;;;;;;2.92;1.23;;;;;;;1.90;93.96;98967.22;2073886;28;20056;-64
2021/12/10 04:59:22;;;;;;;;;;;;;;;1.89;94.62;98962.97;2074314;28;20036;-63
2021/12/10 05:00:27;;;;;;;3.40;1.07;;;;;;;1.88;94.93;98966.44;2073949;28;19909;-65
2021/12/10 05:01:28;;;;;;;4.88;1.15;;;;;;;1.88;93.37;98974.16;2073866;28;20307;-65
2021/12/10 05:02:28;;;;;;;2.80;1.17;;;;;;;1.93;93.00;98959.38;2073949;28;20037;-65
2021/12/10 05:03:29;;;;;;;6.13;1.40;;;;;;;1.96;93.26;98948.13;2073889;28;20475;-65
2021/12/10 05:04:31;;;;;;;2.90;1.63;;;;;;;1.95;93.31;98946.47;2073854;28;20052;-64
2021/12/10 05:05:32;;;;;;;4.90;1.13;;;;;;;1.98;92.78;98952.31;2073904;28;20113;-65
2021/12/10 05:06:35;;;;;;;5.28;1.38;;;;;;;1.97;93.23;98954.94;2073916;28;20033;-65
2021/12/10 05:07:37;;;;;;;7.97;2.33;;;;;;;1.96;92.54;98949.00;2065070;28;20018;-65
2021/12/10 05:08:38;;;;;;;4.20;1.38;;;;;;;2.00;92.36;98945.41;2065361;28;20038;-65